Hauptseite
METAR-TAF:

METAR-TAF

Flughäfen :

Flughafen Matsapha

Manzini, Swasiland

Breite: 26-32S, Länge: 031-18E, Höhe: 641 m

METAR: fehlend

Zeit: 03:39 (01:39 UTC)

Prognose

Neuester Wetterbericht von vor 18 Stunden und 39 Minuten, um 07:00 UTC
Gültige Prognose vom 08 um 09 UTC bis 08 um 18 UTC
Wind 7 kt aus Süd
Sichtweite 10 km oder mehr
Aufgelockert bewölkt in der Höhe von 2000 ft
Durchbrochene Bewölkung in der Höhe von 3000 ft
Zeitweise
vom 08 um 09 UTC bis 08 um 13 UTC
Sichtweite: 6000 m
Durchbrochene Bewölkung in der Höhe von 1000 ft
Sprühregen
Wahrscheinlichkeit 30% :
Zeitweise
vom 08 um 14 UTC bis 08 um 18 UTC
Wind 7 kt aus Ost
Sichtweite: 4000 m
Durchbrochene Bewölkung in der Höhe von 500 ft
Regen

TAF: FDMS 080700Z 0809/0818 17007KT 9999 SCT020 BKN030 TEMPO 0809/0813 6000 DZ BKN010 PROB30 TEMPO 0814/0818 10007KT 4000 RA BKN005

Wetterbeobachtungen und Prognosen von mehr als 4000 Flughäfen (METAR und TAF Bericht).

Die verfügbaren Stationen werden durch gelbe und rote Markierungen auf der Karte dargestellt.

Führen Sie die Maus auf sie, um den Namen der Station zu sehen.

Darauf klicken, um die Beobachtung von Wetterbeobachtungen und Prognosen zu sehen.

Um die Karte zu ändern : klicken Sie auf den grünen Tasten mit einem schwarzen Kreuz Zum Vergrößern, auf den grünen Button mit einem Gedankenstrich zu verkleinern, oder auf die grünen Pfeile für benachbarte Karten.


METAR-TAF: